createdAt,value
2023-05-19T00:02:33.744Z,90.65
2023-05-19T00:05:20.094Z,91.10
2023-05-19T00:08:06.498Z,91.40
2023-05-19T00:10:52.659Z,91.06
2023-05-19T00:13:38.457Z,91.37
2023-05-19T00:16:26.361Z,90.83
2023-05-19T00:19:12.388Z,90.59
2023-05-19T00:21:58.811Z,90.85
2023-05-19T00:24:44.239Z,91.07
2023-05-19T00:27:29.518Z,90.32
2023-05-19T00:30:15.352Z,90.97
2023-05-19T00:33:01.047Z,90.84
2023-05-19T00:35:47.225Z,91.00
2023-05-19T00:38:35.555Z,91.15
2023-05-19T00:41:21.338Z,90.97
2023-05-19T00:44:07.578Z,91.82
2023-05-19T00:46:53.420Z,91.57
2023-05-19T00:49:38.683Z,91.18
2023-05-19T00:52:24.131Z,91.34
2023-05-19T00:55:11.597Z,91.71
2023-05-19T00:57:57.246Z,91.52
2023-05-19T01:00:43.346Z,92.14
2023-05-19T01:03:35.218Z,91.93
2023-05-19T01:06:22.172Z,92.33
2023-05-19T01:09:07.705Z,92.30
2023-05-19T01:11:53.556Z,91.53
2023-05-19T01:14:39.329Z,91.21
2023-05-19T01:17:40.428Z,91.80
2023-05-19T01:20:41.555Z,91.26
2023-05-19T01:23:49.412Z,91.45
2023-05-19T01:26:37.726Z,91.07
2023-05-19T01:29:29.454Z,91.55
2023-05-19T01:32:19.576Z,91.30
2023-05-19T01:35:07.151Z,91.50
2023-05-19T01:37:55.961Z,91.67
2023-05-19T01:40:43.744Z,91.59
2023-05-19T01:43:29.515Z,91.15
2023-05-19T01:46:16.308Z,91.20
2023-05-19T01:49:02.177Z,91.39
2023-05-19T01:51:49.837Z,91.60
2023-05-19T01:54:35.703Z,91.80
2023-05-19T01:57:46.025Z,92.09
2023-05-19T02:00:37.600Z,92.05
2023-05-19T02:03:42.284Z,91.94
2023-05-19T02:06:41.119Z,91.98
2023-05-19T02:09:31.187Z,91.51
2023-05-19T02:12:27.066Z,91.22
2023-05-19T02:15:24.655Z,91.70
2023-05-19T02:18:11.880Z,90.87
2023-05-19T02:20:57.485Z,90.77
2023-05-19T02:23:43.039Z,90.75
2023-05-19T02:26:28.385Z,90.26
2023-05-19T02:29:13.904Z,89.34
2023-05-19T02:32:02.120Z,89.27
2023-05-19T02:34:48.361Z,89.68
2023-05-19T02:37:34.056Z,90.03
2023-05-19T02:40:19.826Z,90.07
2023-05-19T02:43:05.054Z,90.50
2023-05-19T02:45:50.976Z,90.71
2023-05-19T02:48:36.241Z,91.04
2023-05-19T02:51:22.111Z,90.87
2023-05-19T02:54:07.456Z,90.87
2023-05-19T02:56:52.807Z,90.95
2023-05-19T02:59:38.460Z,89.84
2023-05-19T03:02:23.737Z,89.99
2023-05-19T03:05:10.367Z,89.63
2023-05-19T03:07:55.988Z,89.76
2023-05-19T03:10:42.370Z,89.90
2023-05-19T03:13:27.691Z,89.78
2023-05-19T03:16:14.138Z,90.60
2023-05-19T03:19:00.152Z,90.54
2023-05-19T03:21:46.374Z,90.71
2023-05-19T03:24:31.643Z,91.39
2023-05-19T03:27:17.749Z,90.86
2023-05-19T03:30:06.334Z,91.40
2023-05-19T03:32:55.514Z,91.23
2023-05-19T03:35:40.955Z,91.60
2023-05-19T03:38:26.881Z,91.85
2023-05-19T03:41:16.245Z,91.75
2023-05-19T03:44:02.641Z,92.14
2023-05-19T03:46:48.718Z,92.00
2023-05-19T03:49:54.995Z,92.74
2023-05-19T03:53:18.956Z,92.46
2023-05-19T03:56:04.665Z,92.23
2023-05-19T03:58:51.299Z,92.27
2023-05-19T04:01:37.725Z,92.46
2023-05-19T04:04:23.872Z,92.24
2023-05-19T04:07:09.601Z,91.36
2023-05-19T04:09:55.061Z,91.32
2023-05-19T04:12:41.344Z,91.31
2023-05-19T04:15:27.667Z,91.43
2023-05-19T04:18:13.936Z,91.37
2023-05-19T04:20:59.564Z,91.44
2023-05-19T04:23:44.981Z,92.44
2023-05-19T04:26:31.222Z,92.69
2023-05-19T04:29:18.177Z,92.88
2023-05-19T04:32:07.818Z,93.14
2023-05-19T04:34:54.203Z,93.33
2023-05-19T04:37:48.511Z,93.24
2023-05-19T04:40:37.160Z,93.37
2023-05-19T04:43:23.104Z,93.27
2023-05-19T04:46:13.455Z,93.02
2023-05-19T04:49:03.052Z,92.47
2023-05-19T04:51:50.562Z,92.95
2023-05-19T04:54:41.930Z,92.14
2023-05-19T04:57:30.536Z,91.87
2023-05-19T05:00:16.915Z,91.82
2023-05-19T05:03:14.527Z,92.23
2023-05-19T05:06:00.287Z,92.42
2023-05-19T05:08:46.185Z,92.39
2023-05-19T05:11:32.946Z,92.31
2023-05-19T05:14:19.969Z,91.85
2023-05-19T05:17:06.437Z,91.92
2023-05-19T05:19:52.200Z,91.63
2023-05-19T05:22:39.711Z,91.18
2023-05-19T05:25:26.722Z,91.88
2023-05-19T05:28:12.211Z,91.09
2023-05-19T05:30:58.038Z,90.31
2023-05-19T05:33:43.828Z,90.38
2023-05-19T05:36:30.768Z,90.37
2023-05-19T05:39:16.537Z,91.17
2023-05-19T05:42:03.927Z,90.98
2023-05-19T05:44:49.301Z,91.00
2023-05-19T05:47:39.860Z,90.64
2023-05-19T05:50:26.364Z,90.88
2023-05-19T05:53:18.909Z,90.59
2023-05-19T05:56:06.095Z,90.99
2023-05-19T05:59:00.266Z,90.62
2023-05-19T06:01:45.575Z,90.91
2023-05-19T06:04:31.120Z,90.63
2023-05-19T06:07:16.788Z,91.11
2023-05-19T06:10:03.438Z,90.95
2023-05-19T06:12:49.142Z,90.60
2023-05-19T06:15:34.331Z,90.86
2023-05-19T06:18:29.368Z,90.77
2023-05-19T06:21:15.003Z,90.61
2023-05-19T06:24:01.150Z,91.33
2023-05-19T06:26:46.451Z,91.21
2023-05-19T06:29:31.851Z,89.96
2023-05-19T06:32:21.134Z,90.51
2023-05-19T06:35:08.603Z,90.64
2023-05-19T06:37:55.771Z,90.91
2023-05-19T06:40:41.055Z,91.20
2023-05-19T06:43:26.881Z,90.99
2023-05-19T06:46:14.587Z,90.42
2023-05-19T06:49:02.698Z,90.20
2023-05-19T06:51:52.902Z,88.83
2023-05-19T06:54:39.736Z,88.03
2023-05-19T06:57:25.808Z,88.03
2023-05-19T07:00:13.966Z,88.58
2023-05-19T07:03:05.152Z,88.87
2023-05-19T07:05:50.467Z,88.75
2023-05-19T07:08:37.415Z,89.78
2023-05-19T07:11:24.732Z,88.55
2023-05-19T07:14:09.953Z,88.12
2023-05-19T07:16:55.463Z,87.55
2023-05-19T07:19:41.163Z,87.16
2023-05-19T07:22:27.187Z,87.16
2023-05-19T07:25:14.308Z,87.25
2023-05-19T07:27:59.933Z,86.85
2023-05-19T07:30:46.668Z,86.89
2023-05-19T07:33:31.931Z,86.09
2023-05-19T07:36:17.258Z,86.70
2023-05-19T07:39:02.751Z,86.15
2023-05-19T07:41:52.715Z,86.13
2023-05-19T07:44:38.349Z,86.27
2023-05-19T07:47:23.690Z,86.33
2023-05-19T07:50:09.116Z,86.57
2023-05-19T07:52:54.474Z,85.79
2023-05-19T07:55:40.007Z,85.87
2023-05-19T07:58:25.671Z,85.07
2023-05-19T08:01:11.039Z,85.42
2023-05-19T08:03:56.765Z,85.43
2023-05-19T08:06:44.422Z,85.49
2023-05-19T08:09:30.122Z,85.56
2023-05-19T08:12:15.348Z,85.03
2023-05-19T08:15:01.975Z,84.42
2023-05-19T08:17:47.995Z,84.31
2023-05-19T08:20:34.139Z,84.49
2023-05-19T08:23:19.816Z,84.77
2023-05-19T08:26:05.537Z,84.80
2023-05-19T08:28:51.271Z,84.95
2023-05-19T08:31:36.678Z,84.40
2023-05-19T08:34:22.433Z,84.82
2023-05-19T08:37:08.339Z,84.12
2023-05-19T08:39:53.567Z,84.39
2023-05-19T08:42:38.978Z,84.26
2023-05-19T08:45:24.522Z,84.79
2023-05-19T08:48:10.074Z,84.41
2023-05-19T08:51:03.387Z,84.67
2023-05-19T08:53:51.817Z,84.78
2023-05-19T08:56:37.985Z,84.72
2023-05-19T08:59:23.514Z,84.43
2023-05-19T09:02:13.049Z,83.97
2023-05-19T09:04:58.622Z,84.47
2023-05-19T09:07:45.202Z,84.13
2023-05-19T09:10:30.852Z,83.89
2023-05-19T09:13:16.514Z,83.84
2023-05-19T09:16:03.539Z,83.64
2023-05-19T09:18:57.042Z,82.69
2023-05-19T09:21:44.043Z,83.09
2023-05-19T09:24:30.627Z,83.06
2023-05-19T09:27:23.502Z,82.44
2023-05-19T09:30:10.378Z,82.80
2023-05-19T09:32:56.265Z,82.62
2023-05-19T09:35:47.281Z,81.99
2023-05-19T09:38:33.059Z,81.30
2023-05-19T09:41:18.896Z,81.70
2023-05-19T09:44:05.344Z,81.23
2023-05-19T09:46:52.901Z,81.94
2023-05-19T09:49:46.843Z,81.18
2023-05-19T09:52:44.044Z,81.44
2023-05-19T09:55:29.771Z,81.75
2023-05-19T09:58:21.702Z,81.30
2023-05-19T10:01:07.853Z,80.97
2023-05-19T10:03:53.801Z,81.15
2023-05-19T10:06:39.478Z,81.14
2023-05-19T10:09:26.083Z,80.63
2023-05-19T10:12:13.341Z,81.32
2023-05-19T10:14:59.559Z,81.31
2023-05-19T10:17:45.569Z,80.70
2023-05-19T10:20:31.767Z,81.08
2023-05-19T10:23:17.736Z,80.59
2023-05-19T10:26:06.634Z,80.21
2023-05-19T10:28:52.695Z,79.89
2023-05-19T10:31:40.409Z,80.36
2023-05-19T10:34:37.473Z,80.95
2023-05-19T10:37:45.193Z,79.79
2023-05-19T10:40:36.833Z,79.42
2023-05-19T10:43:35.100Z,79.57
2023-05-19T10:46:40.848Z,78.87
2023-05-19T10:49:36.612Z,79.40
2023-05-19T10:52:25.795Z,79.54
2023-05-19T10:55:17.665Z,80.26
2023-05-19T10:58:45.771Z,80.04
2023-05-19T11:01:33.324Z,79.65
2023-05-19T11:04:51.777Z,79.71
2023-05-19T11:07:41.383Z,79.39
2023-05-19T11:10:27.331Z,78.67
2023-05-19T11:13:23.154Z,78.31
2023-05-19T11:16:09.308Z,78.31
2023-05-19T11:18:56.650Z,77.43
2023-05-19T11:22:13.907Z,77.37
2023-05-19T11:24:59.334Z,77.93
2023-05-19T11:27:46.695Z,78.03
2023-05-19T11:30:32.623Z,78.40
2023-05-19T11:33:27.509Z,78.15
2023-05-19T11:36:13.635Z,78.21
2023-05-19T11:39:00.033Z,77.82
2023-05-19T11:41:45.630Z,76.76
2023-05-19T11:44:31.909Z,76.55
2023-05-19T11:47:17.438Z,76.58
2023-05-19T11:50:02.945Z,76.78
2023-05-19T11:52:48.882Z,76.46
2023-05-19T11:55:34.390Z,76.57
2023-05-19T11:58:27.847Z,76.61
2023-05-19T12:01:13.939Z,76.83
2023-05-19T12:03:59.611Z,76.79
2023-05-19T12:06:49.259Z,75.99
2023-05-19T12:09:34.880Z,76.40
2023-05-19T12:12:21.547Z,76.27
2023-05-19T12:15:08.349Z,75.97
2023-05-19T12:17:59.699Z,75.91
2023-05-19T12:20:47.366Z,75.76
2023-05-19T12:23:34.201Z,76.19
2023-05-19T12:26:22.368Z,75.54
2023-05-19T12:29:08.206Z,76.03
2023-05-19T12:32:08.131Z,75.24
2023-05-19T12:34:56.413Z,75.67
2023-05-19T12:37:49.242Z,76.03
2023-05-19T12:40:36.276Z,74.60
2023-05-19T12:43:25.292Z,75.34
2023-05-19T12:46:11.987Z,74.41
2023-05-19T12:49:01.060Z,74.34
2023-05-19T12:51:54.218Z,74.30
2023-05-19T12:54:40.494Z,74.43
2023-05-19T12:57:27.656Z,74.18
2023-05-19T13:00:14.065Z,73.73
2023-05-19T13:03:00.261Z,73.81
2023-05-19T13:05:47.833Z,74.66
2023-05-19T13:08:33.918Z,74.74
2023-05-19T13:11:19.472Z,74.44
2023-05-19T13:14:04.906Z,73.99
2023-05-19T13:16:50.441Z,73.96
2023-05-19T13:19:35.700Z,74.50
2023-05-19T13:22:21.024Z,73.44
2023-05-19T13:25:07.578Z,73.85
2023-05-19T13:27:54.520Z,73.47
2023-05-19T13:30:41.509Z,73.72
2023-05-19T13:33:27.472Z,73.54
2023-05-19T13:36:12.742Z,73.38
2023-05-19T13:38:58.508Z,73.73
2023-05-19T13:41:44.091Z,73.00
2023-05-19T13:44:29.372Z,72.35
2023-05-19T13:47:15.309Z,73.41
2023-05-19T13:50:00.771Z,72.88
2023-05-19T13:52:46.089Z,72.62
2023-05-19T13:55:32.441Z,72.47
2023-05-19T13:58:18.018Z,72.67
2023-05-19T14:01:03.878Z,72.33
2023-05-19T14:03:49.483Z,72.87
2023-05-19T14:06:35.299Z,72.45
2023-05-19T14:09:20.876Z,72.57
2023-05-19T14:12:07.226Z,72.12
2023-05-19T14:14:52.643Z,72.03
2023-05-19T14:17:38.238Z,72.63
2023-05-19T14:20:23.443Z,72.83
2023-05-19T14:23:08.769Z,72.02
2023-05-19T14:25:54.140Z,71.80
2023-05-19T14:28:39.558Z,72.60
2023-05-19T14:31:24.799Z,72.23
2023-05-19T14:34:11.960Z,72.72
2023-05-19T14:36:57.849Z,72.49
2023-05-19T14:39:43.956Z,72.56
2023-05-19T14:42:29.471Z,72.25
2023-05-19T14:45:15.456Z,72.16
2023-05-19T14:48:01.515Z,72.25
2023-05-19T14:50:48.439Z,71.60
2023-05-19T14:53:34.405Z,71.52
2023-05-19T14:56:19.740Z,71.50
2023-05-19T14:59:05.211Z,70.94
2023-05-19T15:01:50.561Z,71.86
2023-05-19T15:04:36.051Z,71.28
2023-05-19T15:07:21.630Z,71.32
2023-05-19T15:10:07.915Z,72.00
2023-05-19T15:12:53.682Z,70.64
2023-05-19T15:15:39.250Z,71.69
2023-05-19T15:18:26.042Z,71.61
2023-05-19T15:21:11.897Z,71.00
2023-05-19T15:23:57.241Z,70.98
2023-05-19T15:26:42.573Z,71.27
2023-05-19T15:29:28.128Z,71.24
2023-05-19T15:32:14.263Z,70.07
2023-05-19T15:34:59.512Z,69.96
2023-05-19T15:37:44.779Z,70.33
2023-05-19T15:40:30.193Z,71.51
2023-05-19T15:43:16.148Z,71.25
2023-05-19T15:46:01.642Z,71.38
2023-05-19T15:48:47.413Z,71.33
2023-05-19T15:51:32.819Z,71.77
2023-05-19T15:54:18.087Z,72.07
2023-05-19T15:57:03.861Z,71.63
2023-05-19T15:59:49.235Z,71.29
2023-05-19T16:02:34.770Z,70.66
2023-05-19T16:05:20.524Z,71.19
2023-05-19T16:08:08.386Z,71.24
2023-05-19T16:10:55.206Z,71.21
2023-05-19T16:13:40.677Z,70.93
2023-05-19T16:16:26.084Z,70.91
2023-05-19T16:19:11.351Z,70.34
2023-05-19T16:21:57.684Z,71.13
2023-05-19T16:24:43.868Z,71.29
2023-05-19T16:27:29.367Z,71.29
2023-05-19T16:30:15.137Z,72.01
2023-05-19T16:33:00.838Z,72.32
2023-05-19T16:35:46.479Z,72.26
2023-05-19T16:38:32.658Z,72.13
2023-05-19T16:41:18.151Z,72.45
2023-05-19T16:44:03.563Z,72.19
2023-05-19T16:46:49.055Z,72.21
2023-05-19T16:49:34.611Z,72.16
2023-05-19T16:52:20.185Z,72.55
2023-05-19T16:55:07.089Z,72.66
2023-05-19T16:57:53.680Z,72.48
2023-05-19T17:00:38.941Z,72.96
2023-05-19T17:03:24.499Z,72.92
2023-05-19T17:06:10.302Z,72.93
2023-05-19T17:08:55.651Z,72.88
2023-05-19T17:11:41.536Z,73.02
2023-05-19T17:14:27.043Z,73.22
2023-05-19T17:17:12.701Z,73.28
2023-05-19T17:19:58.205Z,73.25
2023-05-19T17:22:43.602Z,73.29
2023-05-19T17:25:29.131Z,73.57
2023-05-19T17:28:14.323Z,73.57
2023-05-19T17:30:59.649Z,73.76
2023-05-19T17:33:45.153Z,73.65
2023-05-19T17:36:30.988Z,73.77
2023-05-19T17:39:16.681Z,73.88
2023-05-19T17:42:02.251Z,74.07
2023-05-19T17:44:47.678Z,74.49
2023-05-19T17:47:34.033Z,74.74
2023-05-19T17:50:19.434Z,74.86
2023-05-19T17:53:05.255Z,75.12
2023-05-19T17:55:55.931Z,75.66
2023-05-19T17:58:42.283Z,75.94
2023-05-19T18:01:28.130Z,76.18
2023-05-19T18:04:16.065Z,76.50
2023-05-19T18:07:03.641Z,76.71
2023-05-19T18:09:51.364Z,76.64
2023-05-19T18:12:36.817Z,76.72
2023-05-19T18:15:22.290Z,76.99
2023-05-19T18:18:10.397Z,77.17
2023-05-19T18:20:55.661Z,77.23
2023-05-19T18:23:41.535Z,77.53
2023-05-19T18:26:27.089Z,77.45
2023-05-19T18:29:14.944Z,77.80
2023-05-19T18:32:01.233Z,77.55
2023-05-19T18:34:46.837Z,77.46
2023-05-19T18:37:32.724Z,77.32
2023-05-19T18:40:18.667Z,77.49
2023-05-19T18:43:08.146Z,77.63
2023-05-19T18:45:54.238Z,77.51
2023-05-19T18:48:39.622Z,77.06
2023-05-19T18:51:25.232Z,77.51
2023-05-19T18:54:12.428Z,78.03
2023-05-19T18:56:58.629Z,77.87
2023-05-19T18:59:44.256Z,77.62
2023-05-19T19:02:29.661Z,77.99
2023-05-19T19:05:15.520Z,78.00
2023-05-19T19:08:01.194Z,77.90
2023-05-19T19:10:50.397Z,78.16
2023-05-19T19:13:36.254Z,78.63
2023-05-19T19:16:23.692Z,78.57
2023-05-19T19:19:09.958Z,78.31
2023-05-19T19:21:55.444Z,79.07
2023-05-19T19:24:43.102Z,79.03
2023-05-19T19:27:31.071Z,79.49
2023-05-19T19:30:16.574Z,79.41
2023-05-19T19:33:02.699Z,79.29
2023-05-19T19:35:49.365Z,79.36
2023-05-19T19:38:34.743Z,79.48
2023-05-19T19:41:20.119Z,79.57
2023-05-19T19:44:05.596Z,79.88
2023-05-19T19:46:51.993Z,79.81
2023-05-19T19:49:37.744Z,79.92
2023-05-19T19:52:23.203Z,80.35
2023-05-19T19:55:09.265Z,80.17
2023-05-19T19:57:55.901Z,80.16
2023-05-19T20:00:41.358Z,80.46
2023-05-19T20:03:27.063Z,80.74
2023-05-19T20:06:13.401Z,80.71
2023-05-19T20:08:59.182Z,80.97
2023-05-19T20:11:44.858Z,81.09
2023-05-19T20:14:30.596Z,81.17
2023-05-19T20:17:16.211Z,81.24
2023-05-19T20:20:04.726Z,81.11
2023-05-19T20:22:50.338Z,81.13
2023-05-19T20:25:54.761Z,81.71
2023-05-19T20:28:48.171Z,81.63
2023-05-19T20:31:34.241Z,81.98
2023-05-19T20:34:19.856Z,82.45
2023-05-19T20:37:05.872Z,82.50
2023-05-19T20:39:51.172Z,82.75
2023-05-19T20:42:39.074Z,82.88
2023-05-19T20:45:24.448Z,82.88
2023-05-19T20:48:11.158Z,82.58
2023-05-19T20:50:57.605Z,82.30
2023-05-19T20:53:42.963Z,82.30
2023-05-19T20:56:28.277Z,82.80
2023-05-19T20:59:13.856Z,82.91
2023-05-19T21:01:59.281Z,83.42
2023-05-19T21:04:46.025Z,83.26
2023-05-19T21:07:31.360Z,84.11
2023-05-19T21:10:17.925Z,84.05
2023-05-19T21:13:03.198Z,84.46
2023-05-19T21:15:48.877Z,84.54
2023-05-19T21:18:34.924Z,84.93
2023-05-19T21:21:20.301Z,84.82
2023-05-19T21:24:05.916Z,85.14
2023-05-19T21:26:52.064Z,85.07
2023-05-19T21:29:37.480Z,84.75
2023-05-19T21:32:22.982Z,84.51
2023-05-19T21:35:08.887Z,84.63
2023-05-19T21:37:54.624Z,84.20
2023-05-19T21:40:40.346Z,83.73
2023-05-19T21:43:26.716Z,83.13
2023-05-19T21:46:12.017Z,82.89
2023-05-19T21:48:57.327Z,82.61
2023-05-19T21:51:42.580Z,82.23
2023-05-19T21:54:27.998Z,81.79
2023-05-19T21:57:13.214Z,81.61
2023-05-19T21:59:58.664Z,81.70
2023-05-19T22:02:45.007Z,81.55
2023-05-19T22:05:32.387Z,82.10
2023-05-19T22:08:19.420Z,82.63
2023-05-19T22:11:05.206Z,83.02
2023-05-19T22:13:50.630Z,83.00
2023-05-19T22:16:36.350Z,82.84
2023-05-19T22:19:21.863Z,83.04
2023-05-19T22:22:13.834Z,82.92
2023-05-19T22:25:00.255Z,83.35
2023-05-19T22:27:45.624Z,83.38
2023-05-19T22:30:32.544Z,83.72
2023-05-19T22:33:19.480Z,83.70
2023-05-19T22:36:05.605Z,84.03
2023-05-19T22:38:51.515Z,83.33
2023-05-19T22:41:37.331Z,84.18
2023-05-19T22:44:22.529Z,84.32
2023-05-19T22:47:13.349Z,83.99
2023-05-19T22:49:59.320Z,83.86
2023-05-19T22:52:44.970Z,83.71
2023-05-19T22:55:30.399Z,83.48
2023-05-19T22:58:16.292Z,83.43
2023-05-19T23:01:01.595Z,83.52
2023-05-19T23:03:47.268Z,83.56
2023-05-19T23:06:32.508Z,84.06
2023-05-19T23:09:18.105Z,84.02
2023-05-19T23:12:03.658Z,84.29
2023-05-19T23:14:49.118Z,84.51
2023-05-19T23:17:34.532Z,84.30
2023-05-19T23:20:20.100Z,84.05
2023-05-19T23:23:05.798Z,84.25
2023-05-19T23:25:51.478Z,84.48
2023-05-19T23:28:36.659Z,84.78
2023-05-19T23:31:21.995Z,84.63
2023-05-19T23:34:08.634Z,85.08
2023-05-19T23:36:54.081Z,85.77
2023-05-19T23:39:39.522Z,86.14
2023-05-19T23:42:24.778Z,86.09
2023-05-19T23:45:10.618Z,87.17
2023-05-19T23:47:56.258Z,86.93
2023-05-19T23:50:41.616Z,87.10
2023-05-19T23:53:27.163Z,86.87
2023-05-19T23:56:12.421Z,86.75
2023-05-19T23:58:57.790Z,86.88
